Youngstown, OH (44509)

2:40 AM EST on February 06, 2016 (GMT -0500)
West Side | | Change Station
CLOSE
Current Station
Personal Weather Station
Location: Youngstown, OH
Elevation: 1010 ft
Nearby Weather Stations

Elev 1010 ft 41.09 °N, 80.70 °W | Updated 2 seconds ago

Overcast
Overcast
32.2 °F
Feels Like 27 °F
N
5.1
Wind Variable Wind from SSW
Gusts 7.4 mph

Today
High -- | Low -- °F
--% Chance of Precip.
Yesterday
High -- | Low -- °F
Precip. -- in
Pressure 30.30 in
Visibility 10.0 miles
Clouds Overcast 5500 ft
Windchill 27 °F
Dew Point 14 °F
Humidity 47%
Rainfall 0.00 in
Snow Depth Not available.
7:28 AM 5:45 PM
Waning Crescent, 7% visible
METAR KYNG 060651Z 17007KT 10SM OVC055 M01/M07 A3026 RMK AO2 SLP258 T10111072
Pressure 30.30 in
Visibility 10.0 miles
Clouds Overcast 5500 ft
Windchill 27 °F
Dew Point 14 °F
Humidity 47%
Rainfall 0.00 in
Snow Depth Not available.
7:28 AM 5:45 PM
Waning Crescent, 7% visible
METAR KYNG 060651Z 17007KT 10SM OVC055 M01/M07 A3026 RMK AO2 SLP258 T10111072

10-Day Weather Forecast

Almanac

Astronomy

Feb. 06, 2016 Rise Set
Actual Time
Civil Twilight
Nautical Twilight
Astronomical Twilight
Moon
Length of Visible Light
Length of Day
Tomorrow will be .
, % of the Moon is Illuminated

Today's Extremes

State Highs State Lows

Community

WunderPhotos

Upload Photos

1,890,933 photos uploaded!

WunderBlog® & News

Nearby

Air Quality

  Air Quality AQ Index Pollutant
Not available.

Snow Depth

Station Depth Elevation

Earthquake Activity

City Distance Mag. Time & Date
Minimum magnitude displayed is 2.5.

Coastal Water Temperatures

Place Temperature

Stations

Nearby Weather Stations

Station Location Temp. Windchill Dew Point Humidity Wind Precip. Elev Updated Type
                   

Watches & Warnings

There are currently no watches in effect.